Time;durP1;ratioP1;P1;durP2;ratioP2;P2;SDS_P1;SDS_P2;PMS_P1;PMS_P2;Temp;Humidity;BMP_temperature;BMP_pressure;BME280_temperature;BME280_humidity;BME280_pressure;Samples;Min_cycle;Max_cycle;Signal;HPM_P1;HPM_P2
2022/05/30 00:01:07;;;;;;;12.30;3.20;;;;;;;-145.18;100.00;46689.69;4972268;28;20792;-71
2022/05/30 00:03:33;;;;;;;12.07;3.43;;;;;;;-145.18;100.00;46687.75;4972541;28;20049;-71
2022/05/30 00:05:58;;;;;;;13.00;3.87;;;;;;;-145.18;100.00;46681.88;4972286;28;20828;-71
2022/05/30 00:08:23;;;;;;;8.13;3.10;;;;;;;-145.18;100.00;46685.78;4972668;28;20074;-71
2022/05/30 00:10:49;;;;;;;8.20;2.90;;;;;;;-145.18;100.00;46691.66;4971644;28;20067;-71
2022/05/30 00:13:14;;;;;;;11.90;2.60;;;;;;;-145.18;100.00;46670.16;4972888;28;20488;-71
2022/05/30 00:15:40;;;;;;;7.67;3.00;;;;;;;-145.18;100.00;46677.97;4971822;28;20058;-71
2022/05/30 00:18:09;;;;;;;11.17;3.57;;;;;;;-145.18;100.00;46683.84;4972594;28;20037;-71
2022/05/30 00:20:36;;;;;;;12.83;2.70;;;;;;;-145.18;100.00;46676.03;4971622;28;20045;-70
2022/05/30 00:23:02;;;;;;;6.97;2.67;;;;;;;-145.18;100.00;46685.78;4972139;28;20273;-72
2022/05/30 00:25:27;;;;;;;11.80;2.90;;;;;;;-145.18;100.00;46679.94;4971960;28;20280;-71
2022/05/30 00:27:53;;;;;;;8.23;2.83;;;;;;;-145.18;100.00;46685.78;4972057;28;20034;-71
2022/05/30 00:30:19;;;;;;;7.77;2.40;;;;;;;-145.18;100.00;46681.88;4972113;28;20381;-71
2022/05/30 00:32:44;;;;;;;9.83;3.27;;;;;;;-145.18;100.00;46679.94;4971688;28;20057;-71
2022/05/30 00:35:12;;;;;;;4.50;2.97;;;;;;;-145.18;100.00;46677.97;4971716;28;20607;-71
2022/05/30 00:37:37;;;;;;;11.00;3.07;;;;;;;-145.18;100.00;46677.97;4971492;28;20049;-72
2022/05/30 00:40:04;;;;;;;6.77;2.30;;;;;;;-145.18;100.00;46677.97;4977531;28;20637;-71
2022/05/30 00:42:31;;;;;;;6.23;2.43;;;;;;;-145.18;100.00;46677.97;4971720;28;20031;-71
2022/05/30 00:44:57;;;;;;;19.73;2.63;;;;;;;-145.18;100.00;46677.97;4986473;28;20962;-71
2022/05/30 00:47:25;;;;;;;6.03;3.57;;;;;;;-145.18;100.00;46676.03;4971284;28;20272;-71
2022/05/30 00:49:51;;;;;;;13.40;3.50;;;;;;;-145.18;100.00;46672.13;4971739;28;20275;-71
2022/05/30 00:52:28;;;;;;;8.00;3.33;;;;;;;-145.18;100.00;46681.88;4970915;28;20281;-71
2022/05/30 00:54:58;;;;;;;16.03;4.13;;;;;;;-145.18;100.00;46679.94;4971360;28;20268;-72
2022/05/30 00:57:27;;;;;;;11.27;3.90;;;;;;;-145.18;100.00;46677.97;4971453;28;20642;-71
2022/05/30 00:59:55;;;;;;;6.97;3.67;;;;;;;-145.18;100.00;46668.22;4971556;28;20269;-71
2022/05/30 01:02:23;;;;;;;7.03;3.20;;;;;;;-145.18;100.00;46674.06;4971086;28;20375;-71
2022/05/30 01:07:34;;;;;;;6.37;3.07;;;;;;;-145.18;100.00;46672.13;4971248;28;20276;-71
2022/05/30 01:10:01;;;;;;;12.87;4.03;;;;;;;-145.18;100.00;46664.31;4971471;28;20642;-71
2022/05/30 01:12:42;;;;;;;6.87;3.37;;;;;;;-145.18;100.00;46664.31;4971184;28;20058;-71
2022/05/30 01:15:13;;;;;;;10.43;2.70;;;;;;;-145.18;100.00;46666.25;4971592;28;20279;-71
2022/05/30 01:17:48;;;;;;;9.10;3.10;;;;;;;-145.18;100.00;46666.25;4970706;28;20395;-71
2022/05/30 01:20:25;;;;;;;5.70;3.17;;;;;;;-145.18;100.00;46668.22;4971531;28;20267;-71
2022/05/30 01:23:38;;;;;;;10.27;3.70;;;;;;;-145.18;100.00;46670.16;4970624;28;20295;-71
2022/05/30 01:26:19;;;;;;;11.90;4.10;;;;;;;-145.18;100.00;46676.03;4983660;28;20764;-71
2022/05/30 01:28:55;;;;;;;13.23;4.17;;;;;;;-145.18;100.00;46668.22;4971322;28;20868;-71
2022/05/30 01:31:21;;;;;;;19.75;6.05;;;;;;;-145.18;100.00;46670.16;4970944;28;20269;-72
2022/05/30 01:33:47;;;;;;;10.13;4.23;;;;;;;-145.18;100.00;46672.13;4970908;28;20018;-72
2022/05/30 01:36:12;;;;;;;19.30;4.63;;;;;;;-145.18;100.00;46668.22;4971236;28;20280;-72
2022/05/30 01:38:38;;;;;;;14.97;4.87;;;;;;;-145.18;100.00;46674.06;4971118;28;20034;-72
2022/05/30 01:41:04;;;;;;;11.93;4.70;;;;;;;-145.18;100.00;46668.22;4970934;28;20117;-71
2022/05/30 01:43:29;;;;;;;16.27;4.93;;;;;;;-145.18;100.00;46666.25;4971291;28;20069;-72
2022/05/30 01:45:55;;;;;;;12.40;4.93;;;;;;;-145.18;100.00;46668.22;4970462;28;20502;-72
2022/05/30 01:48:20;;;;;;;12.73;4.73;;;;;;;-145.18;100.00;46662.34;4970328;28;20046;-72
2022/05/30 01:50:47;;;;;;;11.23;4.33;;;;;;;-145.18;100.00;46670.16;5002145;28;20416;-71
2022/05/30 01:53:13;;;;;;;10.90;4.07;;;;;;;-145.18;100.00;46666.25;4971328;28;20031;-71
2022/05/30 01:55:38;;;;;;;13.30;4.10;;;;;;;-145.18;100.00;46666.25;4971048;28;20279;-71
2022/05/30 01:58:05;;;;;;;13.10;4.17;;;;;;;-145.18;100.00;46666.25;4970526;28;20396;-72
2022/05/30 02:03:05;;;;;;;5.78;3.28;;;;;;;-145.18;100.00;46668.22;4969010;23;20351;-71
2022/05/30 02:05:33;;;;;;;7.40;3.00;;;;;;;-145.18;100.00;46666.25;4935222;29;20040;-71
2022/05/30 02:07:59;;;;;;;8.00;2.23;;;;;;;-145.18;100.00;46668.22;4934732;29;20066;-71
2022/05/30 02:10:24;;;;;;;10.60;4.23;;;;;;;-145.18;100.00;46668.22;4936014;29;20306;-71
2022/05/30 02:12:50;;;;;;;9.53;2.90;;;;;;;-145.18;100.00;46674.06;4935570;29;20035;-71
2022/05/30 02:15:15;;;;;;;10.67;3.50;;;;;;;-145.18;100.00;46670.16;4936410;29;20028;-72
2022/05/30 02:17:40;;;;;;;11.93;4.17;;;;;;;-145.18;100.00;46670.16;4935753;29;20031;-71
2022/05/30 02:20:06;;;;;;;55.03;6.17;;;;;;;-145.18;100.00;46670.16;4950947;29;20038;-72
2022/05/30 02:22:32;;;;;;;9.77;4.40;;;;;;;-145.18;100.00;46672.13;4935856;29;20032;-71
2022/05/30 02:24:59;;;;;;;9.50;3.83;;;;;;;-145.18;100.00;46670.16;4935969;29;20289;-71
2022/05/30 02:27:24;;;;;;;8.50;4.30;;;;;;;-145.18;100.00;46670.16;4935578;29;20046;-72
2022/05/30 02:29:52;;;;;;;12.93;4.13;;;;;;;-145.18;100.00;46668.22;4936009;29;20361;-71
2022/05/30 02:32:18;;;;;;;14.63;4.50;;;;;;;-145.18;100.00;46668.22;4935623;28;20501;-71
2022/05/30 02:37:27;;;;;;;8.53;3.60;;;;;;;-145.18;100.00;46668.22;4935768;29;20047;-72
2022/05/30 02:39:52;;;;;;;13.73;4.33;;;;;;;-145.18;100.00;46662.34;4935680;29;20286;-71
2022/05/30 02:42:18;;;;;;;9.53;4.13;;;;;;;-145.18;100.00;46664.31;4935439;29;20071;-71
2022/05/30 02:44:44;;;;;;;13.50;3.67;;;;;;;-145.18;100.00;46666.25;4935577;29;20039;-72
2022/05/30 02:47:10;;;;;;;4.07;2.43;;;;;;;-145.18;100.00;46668.22;4935556;29;20149;-71
2022/05/30 02:49:35;;;;;;;3.60;2.00;;;;;;;-145.18;100.00;46668.22;4935328;29;20362;-71
2022/05/30 02:52:01;;;;;;;10.83;3.00;;;;;;;-145.18;100.00;46664.31;4934314;29;20035;-72
2022/05/30 02:54:27;;;;;;;10.00;3.10;;;;;;;-145.18;100.00;46668.22;4935733;29;20492;-72
2022/05/30 02:56:56;;;;;;;17.70;4.87;;;;;;;-145.18;100.00;46666.25;4935216;29;20035;-72
2022/05/30 02:59:22;;;;;;;11.07;3.60;;;;;;;-145.18;100.00;46660.41;4935281;29;20030;-72
2022/05/30 03:01:48;;;;;;;8.30;4.17;;;;;;;-145.18;100.00;46664.31;4927612;29;20393;-72
2022/05/30 03:04:15;;;;;;;7.07;3.60;;;;;;;-145.18;100.00;46666.25;4916419;29;20321;-71
2022/05/30 03:06:40;;;;;;;15.47;4.10;;;;;;;-145.18;100.00;46670.16;4929640;29;20667;-71
2022/05/30 03:09:06;;;;;;;16.30;5.67;;;;;;;-145.18;100.00;46668.22;4916174;29;20278;-72
2022/05/30 03:11:32;;;;;;;12.73;4.13;;;;;;;-145.18;100.00;46668.22;4916155;29;20856;-72
2022/05/30 03:13:58;;;;;;;13.90;4.93;;;;;;;-145.18;100.00;46672.13;4923721;29;20286;-72
2022/05/30 03:16:23;;;;;;;11.97;5.17;;;;;;;-145.18;100.00;46666.25;4934605;29;20355;-71
2022/05/30 03:18:49;;;;;;;13.87;4.17;;;;;;;-145.18;100.00;46664.31;4915665;29;20040;-72
2022/05/30 03:21:15;;;;;;;13.47;5.27;;;;;;;-145.18;100.00;46666.25;4916200;29;20047;-72
2022/05/30 03:23:40;;;;;;;12.87;4.20;;;;;;;-145.18;100.00;46660.41;4915506;29;20599;-72
2022/05/30 03:26:07;;;;;;;17.17;4.80;;;;;;;-145.18;100.00;46660.41;4916230;29;20036;-72
2022/05/30 03:28:33;;;;;;;11.77;4.57;;;;;;;-145.18;100.00;46660.41;4915615;29;20072;-72
2022/05/30 03:31:00;;;;;;;9.80;4.43;;;;;;;-145.18;100.00;46662.34;4916171;29;20323;-71
2022/05/30 03:33:25;;;;;;;15.73;5.20;;;;;;;-145.18;100.00;46660.41;4915483;29;20287;-71
2022/05/30 03:35:51;;;;;;;9.13;4.37;;;;;;;-145.18;100.00;46664.31;4915684;29;20611;-72
2022/05/30 03:38:16;;;;;;;11.27;4.87;;;;;;;-145.18;100.00;46660.41;4915582;29;20119;-72
2022/05/30 03:40:42;;;;;;;16.00;5.80;;;;;;;-145.18;100.00;46654.53;4929040;29;20036;-72
2022/05/30 03:43:10;;;;;;;11.20;5.90;;;;;;;-145.18;100.00;46660.41;4924558;29;20139;-71
2022/05/30 03:45:44;;;;;;;8.30;4.80;;;;;;;-145.18;100.00;46664.31;4917669;29;20028;-72
2022/05/30 03:48:12;;;;;;;8.17;4.43;;;;;;;-145.18;100.00;46662.34;4915270;29;20334;-72
2022/05/30 03:50:39;;;;;;;11.63;6.17;;;;;;;-145.18;100.00;46666.25;4917524;29;20375;-72
2022/05/30 03:53:06;;;;;;;13.33;6.50;;;;;;;-145.18;100.00;46660.41;4923295;29;20294;-72
2022/05/30 03:55:42;;;;;;;18.20;6.00;;;;;;;-145.18;100.00;46660.41;4923949;29;20289;-72
2022/05/30 03:58:10;;;;;;;12.13;4.73;;;;;;;-145.18;100.00;46658.44;4920895;29;20356;-72
2022/05/30 04:00:36;;;;;;;9.90;5.40;;;;;;;-145.18;100.00;46660.41;4927599;29;20270;-72
2022/05/30 04:03:02;;;;;;;12.97;5.70;;;;;;;-145.18;100.00;46662.34;4919443;29;20369;-72
2022/05/30 04:05:28;;;;;;;14.07;5.70;;;;;;;-145.18;100.00;46660.41;4932732;29;20262;-71
2022/05/30 04:07:54;;;;;;;10.33;4.63;;;;;;;-145.18;100.00;46658.44;4924608;29;20278;-72
2022/05/30 04:10:20;;;;;;;8.17;5.07;;;;;;;-145.18;100.00;46662.34;4925662;29;20036;-72
2022/05/30 04:12:46;;;;;;;12.23;4.93;;;;;;;-145.18;100.00;46660.41;4921384;29;20047;-72
2022/05/30 04:15:18;;;;;;;10.63;5.43;;;;;;;-145.18;100.00;46662.34;4928353;29;20274;-72
2022/05/30 04:17:43;;;;;;;11.97;5.60;;;;;;;-145.18;100.00;46656.50;4914259;29;20040;-72
2022/05/30 04:20:09;;;;;;;19.27;5.73;;;;;;;-145.18;100.00;46656.50;4928531;29;20333;-72
2022/05/30 04:22:35;;;;;;;15.73;5.37;;;;;;;-145.18;100.00;46656.50;4914556;29;20048;-72
2022/05/30 04:25:00;;;;;;;12.67;6.30;;;;;;;-145.18;100.00;46654.53;4933261;29;20776;-72
2022/05/30 04:27:26;;;;;;;12.37;5.97;;;;;;;-145.18;100.00;46658.44;4932292;29;20043;-72
2022/05/30 04:29:51;;;;;;;14.07;5.87;;;;;;;-145.18;100.00;46652.59;4919846;29;20036;-73
2022/05/30 04:32:17;;;;;;;11.47;5.03;;;;;;;-145.18;100.00;46652.59;4929224;29;20044;-72
2022/05/30 04:34:43;;;;;;;8.17;5.40;;;;;;;-145.18;100.00;46656.50;4916317;29;20043;-72
2022/05/30 04:37:09;;;;;;;6.07;3.73;;;;;;;-145.18;100.00;46654.53;4919280;29;20039;-72
2022/05/30 04:39:35;;;;;;;8.00;3.60;;;;;;;-145.18;100.00;46654.53;4933221;29;20325;-72
2022/05/30 04:42:01;;;;;;;9.60;3.87;;;;;;;-145.18;100.00;46656.50;4933059;29;20039;-72
2022/05/30 04:44:26;;;;;;;7.47;3.70;;;;;;;-145.18;100.00;46654.53;4925815;29;20281;-72
2022/05/30 04:46:53;;;;;;;11.53;4.80;;;;;;;-145.18;100.00;46646.72;4932483;29;20503;-72
2022/05/30 04:49:19;;;;;;;8.40;5.03;;;;;;;-145.18;100.00;46650.63;4933205;29;20032;-72
2022/05/30 04:51:44;;;;;;;12.87;5.50;;;;;;;-145.18;100.00;46648.69;4933264;29;20270;-72
2022/05/30 04:54:10;;;;;;;14.17;5.07;;;;;;;-145.18;100.00;46650.63;4933123;29;20277;-73
2022/05/30 04:56:35;;;;;;;9.00;4.00;;;;;;;-145.18;100.00;46648.69;4932855;29;20036;-73
2022/05/30 04:59:00;;;;;;;9.90;4.37;;;;;;;-145.18;100.00;46652.59;4920379;29;20030;-73
2022/05/30 05:01:27;;;;;;;11.20;4.63;;;;;;;-145.18;100.00;46652.59;4928930;29;20099;-73
2022/05/30 05:03:52;;;;;;;9.67;4.90;;;;;;;-145.18;100.00;46648.69;4917921;29;20058;-71
2022/05/30 05:06:20;;;;;;;15.10;5.57;;;;;;;-145.18;100.00;46650.63;4932939;29;20262;-72
2022/05/30 05:08:51;;;;;;;13.70;5.50;;;;;;;-145.18;100.00;46652.59;4942195;29;20432;-72
2022/05/30 05:11:22;;;;;;;11.10;5.27;;;;;;;-145.18;100.00;46652.59;4932470;29;20751;-72
2022/05/30 05:13:48;;;;;;;7.47;4.53;;;;;;;-145.18;100.00;46646.72;4920577;29;20304;-72
2022/05/30 05:16:15;;;;;;;14.73;6.47;;;;;;;-145.18;100.00;46648.69;4920202;29;20748;-72
2022/05/30 05:18:40;;;;;;;19.50;6.57;;;;;;;-145.18;100.00;46652.59;4932157;29;20039;-72
2022/05/30 05:21:06;;;;;;;13.17;5.53;;;;;;;-145.18;100.00;46648.69;4933022;29;20282;-72
2022/05/30 05:23:32;;;;;;;18.27;6.20;;;;;;;-145.18;100.00;46650.63;4932711;29;20436;-72
2022/05/30 05:26:00;;;;;;;14.07;5.57;;;;;;;-145.18;100.00;46650.63;4932820;29;20036;-72
2022/05/30 05:28:26;;;;;;;18.27;5.97;;;;;;;-145.18;100.00;46648.69;4942147;29;20103;-72
2022/05/30 05:30:51;;;;;;;19.90;6.13;;;;;;;-145.18;100.00;46652.59;4932666;29;20341;-72
2022/05/30 05:33:18;;;;;;;15.87;5.93;;;;;;;-145.18;100.00;46652.59;4947167;29;20171;-72
2022/05/30 05:35:46;;;;;;;19.83;6.70;;;;;;;-145.18;100.00;46650.63;4922227;29;20052;-72
2022/05/30 05:38:13;;;;;;;10.10;5.67;;;;;;;-145.18;100.00;46652.59;4934923;29;20277;-72
2022/05/30 05:40:40;;;;;;;15.93;5.80;;;;;;;-145.18;100.00;46652.59;4936425;29;20764;-72
2022/05/30 05:43:06;;;;;;;15.90;6.43;;;;;;;-145.18;100.00;46654.53;4936450;29;20284;-72
2022/05/30 05:45:39;;;;;;;13.50;5.10;;;;;;;-145.18;100.00;46648.69;4936662;29;20895;-72
2022/05/30 05:48:06;;;;;;;16.13;5.27;;;;;;;-145.18;100.00;46654.53;4936638;29;20326;-72
2022/05/30 05:50:32;;;;;;;15.07;4.40;;;;;;;-145.18;100.00;46652.59;4936844;29;20278;-72
2022/05/30 05:52:57;;;;;;;11.93;4.83;;;;;;;-145.18;100.00;46656.50;4936163;29;20278;-72
2022/05/30 05:55:23;;;;;;;13.27;4.00;;;;;;;-145.18;100.00;46662.34;4936409;29;20036;-72
2022/05/30 05:57:49;;;;;;;9.97;3.60;;;;;;;-145.18;100.00;46664.31;4935788;29;20036;-72
2022/05/30 06:00:15;;;;;;;12.73;4.00;;;;;;;-145.18;100.00;46664.31;4936450;29;20270;-72
2022/05/30 06:02:41;;;;;;;19.07;4.03;;;;;;;-145.18;100.00;46664.31;4933905;29;20059;-72
2022/05/30 06:05:10;;;;;;;12.43;3.93;;;;;;;-145.18;100.00;46668.22;4930551;29;20288;-72
2022/05/30 06:07:37;;;;;;;12.33;4.87;;;;;;;-145.18;100.00;46666.25;4935031;29;20044;-72
2022/05/30 06:10:05;;;;;;;9.90;3.80;;;;;;;-145.18;100.00;46672.13;4936127;29;20271;-72
2022/05/30 06:12:33;;;;;;;10.20;3.73;;;;;;;-145.18;100.00;46664.31;4925559;29;20803;-72
2022/05/30 06:14:59;;;;;;;12.30;4.10;;;;;;;-145.18;100.00;46668.22;4929324;29;20285;-72
2022/05/30 06:17:24;;;;;;;8.53;3.00;;;;;;;-145.18;100.00;46656.50;4916385;29;20275;-72
2022/05/30 06:19:49;;;;;;;10.23;2.33;;;;;;;-145.18;100.00;46590.06;4916576;29;20036;-72
2022/05/30 06:22:15;;;;;;;10.83;2.70;;;;;;;-145.18;100.00;46549.06;4917206;29;20481;-72
2022/05/30 06:24:40;;;;;;;9.60;1.97;;;;;;;-145.18;100.00;46545.16;4916593;29;20120;-72
2022/05/30 06:27:06;;;;;;;8.40;1.20;;;;;;;-145.18;100.00;46568.59;4917023;29;20041;-72
2022/05/30 06:29:32;;;;;;;6.10;1.30;;;;;;;-145.18;100.00;46588.13;4916483;29;20487;-72
2022/05/30 06:31:58;;;;;;;9.30;1.40;;;;;;;-145.18;100.00;46601.78;4916769;29;20071;-72
2022/05/30 06:34:24;;;;;;;5.13;1.33;;;;;;;-145.18;100.00;46605.69;4916783;29;20271;-72
2022/05/30 06:36:49;;;;;;;5.63;1.50;;;;;;;-145.18;100.00;46629.13;4930619;29;20031;-73
2022/05/30 06:39:17;;;;;;;9.57;1.87;;;;;;;-145.18;100.00;46629.13;4935539;29;20437;-73
2022/05/30 06:41:42;;;;;;;8.77;1.57;;;;;;;-145.18;100.00;46635.00;4930537;29;20031;-73
2022/05/30 06:44:08;;;;;;;8.70;1.70;;;;;;;-145.18;100.00;46623.28;4931930;29;20366;-73
2022/05/30 06:46:36;;;;;;;8.17;1.97;;;;;;;-145.18;100.00;46625.22;4918256;29;20494;-73
2022/05/30 06:49:03;;;;;;;8.70;1.50;;;;;;;-145.18;100.00;46621.31;4931768;29;20270;-74
2022/05/30 06:51:30;;;;;;;13.00;1.93;;;;;;;-145.18;100.00;46629.13;4934910;29;21019;-73
2022/05/30 06:53:56;;;;;;;8.20;1.30;;;;;;;-145.18;100.00;46633.06;4928382;29;20417;-73
2022/05/30 06:56:24;;;;;;;5.50;1.30;;;;;;;-145.18;100.00;46629.13;4935591;29;20282;-74
2022/05/30 06:58:51;;;;;;;8.43;1.70;;;;;;;-145.18;100.00;46621.31;4934627;29;20063;-74
2022/05/30 07:01:21;;;;;;;5.90;1.10;;;;;;;-145.18;100.00;46627.19;4935345;29;20694;-73
2022/05/30 07:03:47;;;;;;;6.80;1.40;;;;;;;-145.18;100.00;46674.06;4927833;29;20281;-73
2022/05/30 07:06:16;;;;;;;5.07;1.37;;;;;;;-145.18;100.00;46699.47;4935202;29;20266;-73
2022/05/30 07:08:45;;;;;;;11.97;1.30;;;;;;;-145.18;100.00;46695.56;4934514;29;20027;-74
2022/05/30 07:11:15;;;;;;;10.30;1.47;;;;;;;-145.18;100.00;46701.41;4935113;29;20408;-73
2022/05/30 07:13:41;;;;;;;9.73;1.50;;;;;;;-145.18;100.00;46709.22;4921872;29;20299;-74
2022/05/30 07:16:09;;;;;;;9.83;1.60;;;;;;;-145.18;100.00;46719.00;4923463;29;20652;-74
2022/05/30 07:18:34;;;;;;;8.17;1.27;;;;;;;-145.18;100.00;46752.19;4919816;29;20054;-73
2022/05/30 07:21:03;;;;;;;5.70;1.03;;;;;;;-145.18;100.00;46838.16;4924865;29;20486;-74
2022/05/30 07:23:31;;;;;;;4.97;1.00;;;;;;;-145.18;100.00;46965.13;4915706;29;20115;-73
2022/05/30 07:26:08;;;;;;;6.23;1.37;;;;;;;-145.18;100.00;47027.63;4915540;29;20039;-73
2022/05/30 07:28:34;;;;;;;5.70;1.30;;;;;;;-145.18;100.00;47410.56;4914842;29;20278;-73
2022/05/30 07:31:12;;;;;;;6.40;0.93;;;;;;;-145.18;100.00;47453.53;4916067;29;20283;-73
2022/05/30 07:33:39;;;;;;;3.43;0.80;;;;;;;-145.18;100.00;47447.66;4915235;29;20099;-73
2022/05/30 07:36:10;;;;;;;4.97;1.10;;;;;;;-145.18;100.00;47434.00;4915676;29;20278;-73
2022/05/30 07:38:36;;;;;;;5.27;0.90;;;;;;;-145.18;100.00;47463.31;4928394;29;20278;-73
2022/05/30 07:41:03;;;;;;;5.20;0.73;;;;;;;-145.18;100.00;47480.88;4934106;29;20301;-73
2022/05/30 07:43:29;;;;;;;4.00;0.90;;;;;;;-145.18;100.00;47365.63;4933024;29;20366;-73
2022/05/30 07:45:54;;;;;;;4.67;0.87;;;;;;;-145.18;100.00;47330.44;4927129;29;20386;-73
2022/05/30 07:48:19;;;;;;;7.60;0.90;;;;;;;-145.18;100.00;47418.38;4933642;29;20532;-73
2022/05/30 07:50:45;;;;;;;5.63;0.70;;;;;;;-145.18;100.00;47408.59;4933439;29;20050;-73
2022/05/30 07:53:11;;;;;;;9.53;1.10;;;;;;;-145.18;100.00;47430.09;4933716;29;20147;-73
2022/05/30 07:55:39;;;;;;;5.73;0.97;;;;;;;-145.18;100.00;47389.06;4932420;29;20118;-73
2022/05/30 07:58:07;;;;;;;8.40;0.83;;;;;;;-145.18;100.00;47381.25;4933563;29;20055;-73
2022/05/30 08:00:35;;;;;;;4.20;0.90;;;;;;;-145.18;100.00;47385.16;4933075;29;20046;-73
2022/05/30 08:03:01;;;;;;;4.87;0.93;;;;;;;-145.18;100.00;47336.31;4932066;29;20047;-73
2022/05/30 08:05:27;;;;;;;3.57;0.70;;;;;;;-145.18;100.00;47334.34;4934273;29;20293;-73
2022/05/30 08:07:52;;;;;;;4.83;1.10;;;;;;;-145.18;100.00;47312.88;4933419;29;20509;-73
2022/05/30 08:10:19;;;;;;;7.00;0.90;;;;;;;-145.18;100.00;47303.09;4933541;29;20142;-73
2022/05/30 08:12:46;;;;;;;5.90;1.33;;;;;;;-145.18;100.00;47312.88;4930742;29;20023;-73
2022/05/30 08:15:11;;;;;;;3.07;0.70;;;;;;;-145.18;100.00;47305.06;4930248;29;20055;-73
2022/05/30 08:17:37;;;;;;;6.87;0.90;;;;;;;-145.18;100.00;47312.88;4923047;29;20052;-73
2022/05/30 08:20:05;;;;;;;3.40;0.87;;;;;;;-145.18;100.00;47316.78;4923559;29;20040;-73
2022/05/30 08:22:34;;;;;;;3.10;0.63;;;;;;;-145.18;100.00;47285.50;4933314;29;20423;-74
2022/05/30 08:25:03;;;;;;;6.37;0.80;;;;;;;-145.18;100.00;47281.59;4930452;29;20110;-73
2022/05/30 08:27:29;;;;;;;3.30;0.70;;;;;;;-145.18;100.00;47269.88;4927545;29;20069;-73
2022/05/30 08:29:55;;;;;;;5.83;0.80;;;;;;;-145.18;100.00;47271.84;4927253;29;20047;-73
2022/05/30 08:32:20;;;;;;;4.07;0.97;;;;;;;-145.18;100.00;47236.66;4933547;29;20036;-73
2022/05/30 08:34:46;;;;;;;4.10;0.70;;;;;;;-145.18;100.00;47248.41;4932894;29;20036;-74
2022/05/30 08:37:11;;;;;;;5.57;1.10;;;;;;;-145.18;100.00;47217.13;4933420;29;20063;-74
2022/05/30 08:42:28;;;;;;;4.90;1.13;;;;;;;-145.18;100.00;47234.72;4933270;29;20105;-73
2022/05/30 08:44:55;;;;;;;3.90;0.93;;;;;;;-145.18;100.00;47230.81;4932946;29;20098;-73
2022/05/30 08:47:53;;;;;;;4.47;1.63;;;;;;;-145.18;100.00;47228.84;4933229;29;20035;-73
2022/05/30 08:50:31;;;;;;;4.43;0.80;;;;;;;-145.18;100.00;47264.03;4927572;29;20036;-73
2022/05/30 08:53:38;;;;;;;6.70;1.30;;;;;;;-145.18;100.00;47283.56;4932834;29;20507;-73
2022/05/30 08:56:28;;;;;;;4.00;1.03;;;;;;;-145.18;100.00;47293.31;4912968;29;20075;-73
2022/05/30 08:58:59;;;;;;;4.07;0.80;;;;;;;-145.18;100.00;47312.88;4932252;29;20465;-73
2022/05/30 09:01:34;;;;;;;2.37;0.90;;;;;;;-145.18;100.00;47322.63;4933090;29;20237;-73
2022/05/30 09:04:10;;;;;;;4.37;0.90;;;;;;;-145.18;100.00;47340.22;4932815;29;20048;-73
2022/05/30 09:06:49;;;;;;;8.57;1.50;;;;;;;-145.18;100.00;47346.06;4932952;29;20039;-73
2022/05/30 09:09:56;;;;;;;4.80;0.90;;;;;;;-145.18;100.00;47340.22;4932774;29;20035;-73
2022/05/30 09:13:06;;;;;;;4.22;0.73;;;;;;;-145.18;100.00;47320.69;4892610;29;20055;-73
2022/05/30 09:15:57;;;;;;;4.53;1.10;;;;;;;-145.18;100.00;47262.06;4892397;29;20033;-73
2022/05/30 09:18:30;;;;;;;6.17;0.80;;;;;;;-145.18;100.00;47258.16;4916353;29;20017;-73
2022/05/30 09:20:56;;;;;;;3.23;0.77;;;;;;;-145.18;100.00;47217.13;4914022;29;20032;-73
2022/05/30 09:23:24;;;;;;;4.97;1.07;;;;;;;-145.18;100.00;47201.50;4913643;29;20079;-73
2022/05/30 09:26:11;;;;;;;6.10;0.80;;;;;;;-145.18;100.00;47195.66;4913782;29;20028;-74
2022/05/30 09:28:42;;;;;;;3.23;0.87;;;;;;;-145.18;100.00;47193.69;4929285;29;20064;-73
2022/05/30 09:31:27;;;;;;;5.33;1.17;;;;;;;-145.18;100.00;47156.56;4933174;29;20114;-73
2022/05/30 09:34:00;;;;;;;3.47;0.70;;;;;;;-145.18;100.00;47223.00;4931998;29;20035;-73
2022/05/30 09:36:27;;;;;;;4.27;0.90;;;;;;;-145.18;100.00;47250.34;4932867;29;20026;-73
2022/05/30 09:39:01;;;;;;;1.20;0.60;;;;;;;-145.18;100.00;47285.50;4931913;29;20122;-73
2022/05/30 09:41:28;;;;;;;7.17;0.90;;;;;;;-145.18;100.00;47262.06;4932614;29;20040;-73
2022/05/30 09:43:56;;;;;;;3.63;0.70;;;;;;;-145.18;100.00;47291.38;4931888;29;20038;-73
2022/05/30 09:46:42;;;;;;;3.00;0.70;;;;;;;-145.18;100.00;47285.50;4932695;29;20028;-73
2022/05/30 09:49:15;;;;;;;3.17;0.80;;;;;;;-145.18;100.00;47299.19;4932298;29;20024;-73
2022/05/30 09:51:45;;;;;;;3.13;1.00;;;;;;;-145.18;100.00;47310.91;4932704;29;20034;-73
2022/05/30 09:54:34;;;;;;;2.60;0.67;;;;;;;-145.18;100.00;47330.44;4931919;29;20050;-72
2022/05/30 09:57:19;;;;;;;4.63;1.00;;;;;;;-145.18;100.00;47348.03;4927807;29;20445;-72
2022/05/30 09:59:49;;;;;;;2.67;0.90;;;;;;;-145.18;100.00;47338.25;4931773;29;20032;-73
2022/05/30 10:02:20;;;;;;;2.73;0.80;;;;;;;-145.18;100.00;47330.44;4919719;29;20048;-72
2022/05/30 10:04:46;;;;;;;5.90;0.83;;;;;;;-145.18;100.00;47307.00;4931840;29;20028;-72
2022/05/30 10:07:16;;;;;;;6.00;0.90;;;;;;;-145.18;100.00;47344.13;4932546;29;20118;-72
2022/05/30 10:09:59;;;;;;;4.57;0.83;;;;;;;-145.18;100.00;47344.13;4931731;29;20028;-72
2022/05/30 10:12:31;;;;;;;3.97;0.90;;;;;;;-145.18;100.00;47351.94;4922834;29;20036;-72
2022/05/30 10:14:56;;;;;;;5.50;1.83;;;;;;;-145.18;100.00;47353.88;4925336;29;20514;-72
2022/05/30 10:17:29;;;;;;;6.93;1.03;;;;;;;-145.18;100.00;47361.72;4920460;29;20034;-72
2022/05/30 10:19:56;;;;;;;3.50;1.27;;;;;;;-145.18;100.00;47363.66;4927591;29;20039;-72
2022/05/30 10:28:40;;;;;;;5.20;1.10;;;;;;;-145.18;100.00;47338.25;4926364;29;20119;-73
2022/05/30 10:31:51;;;;;;;4.83;1.00;;;;;;;-145.18;100.00;47332.41;4915555;29;20036;-72
2022/05/30 10:38:14;;;;;;;3.17;0.93;;;;;;;-145.18;100.00;47353.88;4931374;29;20082;-72
2022/05/30 10:40:48;;;;;;;4.30;1.10;;;;;;;-145.18;100.00;47346.06;4934749;29;20034;-73
2022/05/30 10:43:19;;;;;;;4.23;1.37;;;;;;;-145.18;100.00;47344.13;4929073;29;20393;-73
2022/05/30 10:45:45;;;;;;;8.50;1.37;;;;;;;-145.18;100.00;47330.44;4931471;29;20119;-72
2022/05/30 10:48:22;;;;;;;7.67;1.73;;;;;;;-145.18;100.00;47328.50;4935310;29;20769;-73
2022/05/30 10:50:55;;;;;;;6.37;1.30;;;;;;;-145.18;100.00;47305.06;4933908;29;20026;-73
2022/05/30 10:53:38;;;;;;;5.47;1.20;;;;;;;-145.18;100.00;47297.22;4934351;29;20572;-73
2022/05/30 10:56:16;;;;;;;3.53;0.90;;;;;;;-145.18;100.00;47297.22;4934884;29;20096;-73
2022/05/30 10:58:54;;;;;;;4.33;1.27;;;;;;;-145.18;100.00;47314.81;4934604;29;20484;-73
2022/05/30 11:01:40;;;;;;;6.00;1.17;;;;;;;-145.18;100.00;47308.97;4935268;29;20044;-73
2022/05/30 11:04:22;;;;;;;;;;;;;;;-145.18;100.00;47310.91;4935034;29;20043;-73
2022/05/30 11:06:51;;;;;;;6.30;1.50;;;;;;;-145.18;100.00;47295.28;4949662;29;19962;-72
2022/05/30 11:09:23;;;;;;;4.13;1.00;;;;;;;-145.18;100.00;47297.22;4933764;29;20106;-73
2022/05/30 11:12:00;;;;;;;3.80;1.10;;;;;;;-145.18;100.00;47291.38;4929963;29;20025;-73
2022/05/30 11:14:37;;;;;;;5.27;1.03;;;;;;;-145.18;100.00;47285.50;4915806;29;20043;-73
2022/05/30 11:17:30;;;;;;;6.27;0.97;;;;;;;-145.18;100.00;47254.25;4916195;29;20024;-73
2022/05/30 11:20:05;;;;;;;4.00;1.13;;;;;;;-145.18;100.00;47250.34;4915326;29;20027;-73
2022/05/30 11:22:33;;;;;;;7.55;1.15;;;;;;;-145.18;100.00;47207.38;4916302;29;20119;-73
2022/05/30 11:24:58;;;;;;;6.97;1.30;;;;;;;-145.18;100.00;47156.56;4915531;29;20036;-73
2022/05/30 11:27:56;;;;;;;5.83;1.10;;;;;;;-145.18;100.00;47152.66;4922024;29;20050;-73
2022/05/30 11:30:44;;;;;;;9.13;1.40;;;;;;;-145.18;100.00;47092.09;4917640;29;20028;-73
2022/05/30 11:33:22;;;;;;;5.23;1.13;;;;;;;-145.18;100.00;47109.69;4928289;29;20031;-73
2022/05/30 11:36:12;;;;;;;5.43;1.33;;;;;;;-145.18;100.00;47172.19;4927984;29;20017;-73
2022/05/30 11:38:56;;;;;;;3.90;1.30;;;;;;;-145.18;100.00;47209.31;4915003;29;20032;-72